Time;durP1;ratioP1;P1;durP2;ratioP2;P2;SDS_P1;SDS_P2;PMS_P1;PMS_P2;Temp;Humidity;BMP_temperature;BMP_pressure;BME280_temperature;BME280_humidity;BME280_pressure;Samples;Min_cycle;Max_cycle;Signal;HPM_P1;HPM_P2
2021/11/28 00:00:05;;;;;;;;;95.33;68.67;;;;;3.29;100.00;97840.75;6310796;20;3664796;-48
2021/11/28 00:02:35;;;;;;;;;89.00;63.67;;;;;3.04;100.00;97843.19;6279786;20;3647901;-46
2021/11/28 00:05:06;;;;;;;;;80.00;60.00;;;;;3.23;100.00;97830.50;6314099;20;3639866;-45
2021/11/28 00:12:43;;;;;;;;;84.00;60.33;;;;;3.03;100.00;97817.66;6281019;20;3658712;-46
2021/11/28 00:15:18;;;;;;;;;86.00;64.33;;;;;3.07;100.00;97813.84;6280288;20;3625341;-45
2021/11/28 00:17:47;;;;;;;;;81.00;60.33;;;;;3.10;100.00;97807.50;6309952;20;2874428;-47
2021/11/28 00:20:17;;;;;;;;;84.00;61.00;;;;;2.99;100.00;97805.50;6312529;20;3647126;-44
2021/11/28 00:22:47;;;;;;;;;90.67;66.00;;;;;3.47;100.00;97821.97;6312924;20;3630599;-47
2021/11/28 00:25:21;;;;;;;;;88.33;63.00;;;;;3.62;100.00;97826.31;6312749;20;3664843;-50
2021/11/28 00:27:51;;;;;;;;;76.67;58.33;;;;;3.46;100.00;97820.28;6281185;20;2883680;-45
2021/11/28 00:30:26;;;;;;;;;76.50;62.50;;;;;3.54;100.00;97819.81;6313738;20;2868076;-46
2021/11/28 00:32:58;;;;;;;;;86.33;63.33;;;;;3.41;100.00;97825.88;6280561;20;3640021;-48
2021/11/28 00:35:29;;;;;;;;;86.67;63.67;;;;;3.41;100.00;97817.91;6312784;20;3645030;-46
2021/11/28 00:37:58;;;;;;;;;86.00;61.33;;;;;3.27;100.00;97815.28;6313509;20;3656461;-44
2021/11/28 00:40:28;;;;;;;;;82.33;60.00;;;;;3.25;100.00;97820.66;6277750;20;3657528;-47
2021/11/28 00:42:59;;;;;;;;;84.00;62.33;;;;;3.30;100.00;97815.09;6278410;20;3657652;-47
2021/11/28 00:45:28;;;;;;;;;77.67;57.67;;;;;3.61;100.00;97808.72;6308671;20;3614839;-45
2021/11/28 00:48:00;;;;;;;;;89.00;65.00;;;;;3.47;100.00;97790.13;6311761;20;3643064;-47
2021/11/28 00:50:49;;;;;;;;;84.00;59.00;;;;;3.21;100.00;97789.13;6278461;20;3641878;-47
2021/11/28 00:53:20;;;;;;;;;88.33;66.33;;;;;3.08;100.00;97791.69;6310074;20;3639893;-47
2021/11/28 00:55:49;;;;;;;;;89.00;63.00;;;;;3.38;100.00;97801.34;6311692;20;3651266;-46
2021/11/28 00:58:19;;;;;;;;;94.67;68.33;;;;;3.55;100.00;97798.47;6276462;20;3666928;-44
2021/11/28 01:00:48;;;;;;;;;78.00;55.67;;;;;3.62;100.00;97794.47;6311443;20;3647222;-45
2021/11/28 01:03:18;;;;;;;;;91.00;65.67;;;;;3.33;100.00;97790.16;6311864;20;3656473;-48
2021/11/28 01:05:49;;;;;;;;;85.00;61.33;;;;;3.28;100.00;97790.44;6311999;20;3652700;-45
2021/11/28 01:08:20;;;;;;;;;76.67;59.00;;;;;3.13;100.00;97789.59;6311022;20;3659592;-45
2021/11/28 01:10:50;;;;;;;;;78.00;59.00;;;;;3.50;100.00;97789.94;6309980;20;3643458;-47
2021/11/28 01:13:19;;;;;;;;;77.67;58.00;;;;;3.26;100.00;97787.03;6312650;20;3632550;-44
2021/11/28 01:15:49;;;;;;;;;82.00;61.00;;;;;3.08;100.00;97787.25;6311658;20;3657618;-44
2021/11/28 01:18:19;;;;;;;;;93.67;67.00;;;;;2.99;100.00;97779.00;6277055;20;3653494;-45
2021/11/28 01:20:48;;;;;;;;;96.75;68.00;;;;;2.97;100.00;97775.59;6315754;20;4430432;-45
2021/11/28 01:23:18;;;;;;;;;98.33;67.00;;;;;3.05;100.00;97768.88;6312856;20;3695864;-47
2021/11/28 01:25:47;;;;;;;;;90.67;65.67;;;;;3.35;100.00;97765.25;6280781;20;3652310;-44
2021/11/28 01:28:17;;;;;;;;;83.67;63.00;;;;;3.27;100.00;97763.09;6279782;20;3645001;-44
2021/11/28 01:30:47;;;;;;;;;85.33;64.67;;;;;3.42;100.00;97768.34;6310793;20;3631489;-46
2021/11/28 01:33:17;;;;;;;;;95.00;67.67;;;;;3.41;100.00;97779.94;6311374;20;3649200;-45
2021/11/28 01:35:46;;;;;;;;;80.00;62.33;;;;;3.32;100.00;97796.41;6278135;20;3631502;-46
2021/11/28 01:38:19;;;;;;;;;90.00;60.33;;;;;3.55;100.00;97802.91;6310401;20;3652873;-45
2021/11/28 01:40:55;;;;;;;;;74.67;57.33;;;;;3.71;100.00;97809.81;6307060;20;3629547;-46
2021/11/28 01:43:25;;;;;;;;;80.67;62.67;;;;;3.69;100.00;97805.56;6310667;20;3620057;-45
2021/11/28 01:45:55;;;;;;;;;85.67;61.67;;;;;3.51;100.00;97791.66;6310589;20;3650230;-44
2021/11/28 01:48:25;;;;;;;;;82.00;61.00;;;;;3.47;100.00;97779.53;6309071;20;3631646;-45
2021/11/28 01:50:54;;;;;;;;;78.33;59.67;;;;;3.61;100.00;97776.88;6312442;20;3637957;-47
2021/11/28 01:53:28;;;;;;;;;88.33;59.33;;;;;3.37;100.00;97758.06;6316746;20;3652427;-45
2021/11/28 01:55:58;;;;;;;;;82.67;60.67;;;;;3.27;100.00;97762.25;6283564;20;3640847;-46
2021/11/28 01:58:29;;;;;;;;;86.00;64.67;;;;;3.22;100.00;97770.47;6314953;20;3648260;-45
2021/11/28 02:01:06;;;;;;;;;84.33;57.00;;;;;3.20;100.00;97772.38;6316260;20;3660724;-45
2021/11/28 02:03:40;;;;;;;;;79.00;58.33;;;;;3.47;100.00;97766.25;6283382;20;2885808;-45
2021/11/28 02:06:17;;;;;;;;;75.67;56.33;;;;;3.62;100.00;97783.00;6315988;20;3647089;-45
2021/11/28 02:08:48;;;;;;;;;82.67;62.67;;;;;3.74;100.00;97772.47;6315547;20;3631520;-45
2021/11/28 02:11:18;;;;;;;;;80.00;58.33;;;;;3.68;100.00;97780.81;6314789;20;3635619;-49
2021/11/28 02:13:47;;;;;;;;;77.00;55.67;;;;;3.61;100.00;97784.81;6315719;20;3629416;-44
2021/11/28 02:16:17;;;;;;;;;77.67;54.67;;;;;3.29;100.00;97779.75;6316238;20;3649293;-45
2021/11/28 02:18:46;;;;;;;;;79.00;58.00;;;;;3.57;100.00;97764.72;6281260;20;2773187;-46
2021/11/28 02:21:16;;;;;;;;;73.67;52.67;;;;;3.36;100.00;97766.94;6280487;20;3637829;-46
2021/11/28 02:23:46;;;;;;;;;86.00;60.00;;;;;3.44;100.00;97769.97;6315469;20;3650279;-45
2021/11/28 02:26:16;;;;;;;;;78.00;57.67;;;;;3.41;100.00;97770.16;6281147;20;3644012;-45
2021/11/28 02:28:47;;;;;;;;;91.33;64.67;;;;;3.86;100.00;97769.97;6314192;20;3645043;-46
2021/11/28 02:31:17;;;;;;;;;79.67;59.33;;;;;3.54;100.00;97774.69;6315446;20;3630545;-46
2021/11/28 02:33:46;;;;;;;;;82.33;56.33;;;;;3.76;100.00;97763.53;6316218;20;3662746;-45
2021/11/28 02:36:17;;;;;;;;;79.33;57.00;;;;;3.61;100.00;97771.56;6282448;20;3637913;-46
2021/11/28 02:38:47;;;;;;;;;86.33;58.33;;;;;3.62;100.00;97764.44;6314735;20;3671128;-47
2021/11/28 02:41:17;;;;;;;;;84.33;59.67;;;;;3.45;100.00;97757.53;6281782;20;3644014;-46
2021/11/28 02:43:51;;;;;;;;;86.67;63.00;;;;;3.43;100.00;97764.78;6312974;20;3645081;-45
2021/11/28 02:46:21;;;;;;;;;74.00;55.00;;;;;3.55;100.00;97769.28;6315574;20;3623281;-45
2021/11/28 02:48:51;;;;;;;;;79.67;57.67;;;;;3.53;100.00;97771.19;6314244;20;3628361;-45
2021/11/28 02:51:20;;;;;;;;;80.33;58.33;;;;;3.58;100.00;97769.09;6314944;20;3642914;-44
2021/11/28 02:53:50;;;;;;;;;71.00;52.33;;;;;3.66;100.00;97758.84;6314485;20;3634670;-45
2021/11/28 02:56:20;;;;;;;;;77.00;55.33;;;;;3.76;100.00;97748.47;6315263;20;3650307;-45
2021/11/28 02:58:49;;;;;;;;;74.33;54.33;;;;;3.60;100.00;97737.16;6280451;20;3646037;-46
2021/11/28 03:01:23;;;;;;;;;74.33;53.67;;;;;3.53;100.00;97742.00;6314930;20;3647120;-45
2021/11/28 03:03:53;;;;;;;;;80.00;57.67;;;;;3.60;100.00;97748.59;6312417;20;3642992;-45
2021/11/28 03:06:23;;;;;;;;;69.33;55.33;;;;;3.65;100.00;97733.25;6313413;20;3639890;-45
2021/11/28 03:08:53;;;;;;;;;79.50;56.00;;;;;3.58;100.00;97744.34;6313966;20;3520084;-45
2021/11/28 03:11:22;;;;;;;;;73.67;56.67;;;;;3.49;100.00;97740.50;6312582;20;3632485;-47
2021/11/28 03:13:54;;;;;;;;;80.00;56.00;;;;;3.64;100.00;97743.97;6315443;20;3650211;-44
2021/11/28 03:16:26;;;;;;;;;76.67;57.67;;;;;3.48;100.00;97746.75;6314038;20;3650365;-46
2021/11/28 03:18:57;;;;;;;;;70.33;52.67;;;;;3.71;100.00;97756.75;6314088;20;3637762;-45
2021/11/28 03:21:35;;;;;;;;;67.00;51.67;;;;;3.64;100.00;97754.59;6314299;20;3621159;-46
2021/11/28 03:24:07;;;;;;;;;76.33;58.00;;;;;3.62;100.00;97745.88;6312013;20;3637773;-44
2021/11/28 03:26:43;;;;;;;;;71.67;55.00;;;;;3.58;100.00;97745.22;6315518;20;3643999;-45
2021/11/28 03:29:21;;;;;;;;;73.00;53.33;;;;;3.71;100.00;97738.16;6312828;20;3656459;-45
2021/11/28 03:31:56;;;;;;;;;78.00;55.67;;;;;3.69;100.00;97732.09;6313884;20;3645214;-45
2021/11/28 03:34:26;;;;;;;;;87.33;59.67;;;;;3.59;100.00;97731.00;6313324;20;3641912;-44
2021/11/28 03:36:59;;;;;;;;;68.00;51.67;;;;;3.69;100.00;97742.72;6315469;20;3631566;-44
2021/11/28 03:39:30;;;;;;;;;73.00;52.67;;;;;3.84;100.00;97746.16;6312934;20;3638842;-48
2021/11/28 03:42:07;;;;;;;;;70.00;50.00;;;;;3.77;100.00;97744.03;6314992;20;3620085;-51
2021/11/28 03:44:37;;;;;;;;;86.33;59.00;;;;;3.62;100.00;97724.63;6315016;20;3648162;-45
2021/11/28 03:47:06;;;;;;;;;82.67;60.33;;;;;3.70;100.00;97725.84;6313271;20;3649215;-44
2021/11/28 03:49:36;;;;;;;;;78.00;54.67;;;;;3.81;100.00;97740.22;6280048;20;3654419;-45
2021/11/28 03:52:06;;;;;;;;;73.33;53.00;;;;;3.94;100.00;97741.09;6315149;20;3638830;-45
2021/11/28 03:54:37;;;;;;;;;76.33;55.67;;;;;3.95;100.00;97754.28;6314052;20;3656521;-46
2021/11/28 03:57:08;;;;;;;;;69.00;51.67;;;;;4.02;100.00;97744.09;6313612;20;2865923;-46
2021/11/28 03:59:38;;;;;;;;;70.67;51.00;;;;;3.93;100.00;97740.25;6308292;20;3636704;-46
2021/11/28 04:02:08;;;;;;;;;116.25;96.50;;;;;3.67;100.00;97739.31;6314669;20;4467933;-46
2021/11/28 04:04:38;;;;;;;;;74.00;55.00;;;;;3.90;100.00;97742.28;6280443;20;3647125;-46
2021/11/28 04:07:08;;;;;;;;;74.00;54.33;;;;;3.88;100.00;97741.53;6280197;20;3653345;-45
2021/11/28 04:09:38;;;;;;;;;65.33;52.00;;;;;3.93;100.00;97739.41;6312335;20;2879463;-44
2021/11/28 04:12:08;;;;;;;;;71.33;51.33;;;;;4.07;100.00;97741.16;6314409;20;3647174;-44
2021/11/28 04:14:39;;;;;;;;;71.00;55.33;;;;;3.96;100.00;97737.41;6313721;20;3638777;-45
2021/11/28 04:17:09;;;;;;;;;71.00;51.33;;;;;4.11;100.00;97743.50;6313249;20;3653339;-45
2021/11/28 04:19:38;;;;;;;;;72.67;52.00;;;;;4.06;100.00;97745.63;6310356;20;3647108;-45
2021/11/28 04:22:08;;;;;;;;;67.67;50.00;;;;;4.11;100.00;97737.34;6313013;20;3642948;-45
2021/11/28 04:24:37;;;;;;;;;79.33;54.33;;;;;3.92;100.00;97732.38;6310993;20;3650275;-44
2021/11/28 04:27:10;;;;;;;;;529.56;443.33;;;;;3.92;100.00;97735.03;6294376;20;6076308;-44
2021/11/28 04:29:41;;;;;;;;;80.33;57.33;;;;;3.98;100.00;97724.03;6281932;20;3652326;-45
2021/11/28 04:32:11;;;;;;;;;86.50;58.00;;;;;3.74;100.00;97724.69;6280996;20;3601392;-44
2021/11/28 04:34:41;;;;;;;;;74.33;55.67;;;;;4.01;100.00;97723.81;6313465;20;3652322;-46
2021/11/28 04:37:12;;;;;;;;;74.33;53.33;;;;;3.81;100.00;97718.97;6313393;20;3646072;-46
2021/11/28 04:39:41;;;;;;;;;317.75;238.50;;;;;3.78;100.00;97724.50;6311174;20;4522078;-45
2021/11/28 04:42:09;;;;;;;;;170.00;125.00;;;;;3.82;100.00;97720.66;6271632;20;1957728;-44
2021/11/28 04:44:40;;;;;;;;;222.75;173.00;;;;;3.76;100.00;97727.22;6281288;20;3718046;-45
2021/11/28 04:47:10;;;;;;;;;121.33;90.33;;;;;3.79;100.00;97720.88;6311898;20;3703321;-44
2021/11/28 04:49:39;;;;;;;;;79.00;55.00;;;;;3.77;100.00;97722.81;6278747;20;3641872;-45
2021/11/28 04:52:09;;;;;;;;;73.00;56.00;;;;;3.93;100.00;97712.88;6312710;20;3643978;-45
2021/11/28 04:54:39;;;;;;;;;73.67;56.33;;;;;4.08;100.00;97721.59;6311135;20;3640858;-44
2021/11/28 04:57:09;;;;;;;;;73.00;51.00;;;;;4.13;100.00;97715.03;6312028;20;3653337;-45
2021/11/28 04:59:39;;;;;;;;;76.00;52.00;;;;;4.12;100.00;97723.94;6278022;20;3642999;-45
2021/11/28 05:02:09;;;;;;;;;74.67;53.00;;;;;4.10;100.00;97722.34;6309915;20;3642942;-44
2021/11/28 05:04:39;;;;;;;;;70.33;49.67;;;;;4.17;100.00;97723.66;6311374;20;3648133;-45
2021/11/28 05:07:08;;;;;;;;;76.33;56.00;;;;;4.18;100.00;97718.22;6311090;20;3642937;-45
2021/11/28 05:09:38;;;;;;;;;67.33;51.00;;;;;4.13;100.00;97712.38;6309421;20;3642992;-46
2021/11/28 05:12:08;;;;;;;;;75.00;53.00;;;;;3.98;100.00;97716.06;6312566;20;3638794;-45
2021/11/28 05:14:38;;;;;;;;;78.00;55.33;;;;;3.90;100.00;97723.69;6308230;20;3647100;-46
2021/11/28 05:17:07;;;;;;;;;82.00;53.33;;;;;3.85;100.00;97717.84;6311764;20;3649234;-44
2021/11/28 05:19:37;;;;;;;;;84.33;56.67;;;;;3.91;100.00;97715.59;6309951;20;3668023;-44
2021/11/28 05:22:07;;;;;;;;;83.67;56.00;;;;;3.99;100.00;97716.91;6279581;20;3671124;-49
2021/11/28 05:24:37;;;;;;;;;74.67;51.67;;;;;4.00;100.00;97714.13;6278000;20;3650287;-46
2021/11/28 05:27:07;;;;;;;;;70.00;52.00;;;;;4.09;100.00;97713.53;6314997;20;3648227;-46
2021/11/28 05:29:37;;;;;;;;;88.67;63.33;;;;;3.95;100.00;97710.97;6315515;20;3641917;-44
2021/11/28 05:32:07;;;;;;;;;80.67;56.00;;;;;3.89;100.00;97716.66;6283109;20;3661701;-45
2021/11/28 05:34:37;;;;;;;;;83.67;57.67;;;;;3.97;100.00;97714.34;6283106;20;3661733;-46
2021/11/28 05:37:08;;;;;;;;;81.33;53.33;;;;;3.96;100.00;97702.03;6316147;20;3659763;-46
2021/11/28 05:39:37;;;;;;;;;82.00;60.00;;;;;3.97;100.00;97698.41;6315184;20;3648214;-44
2021/11/28 05:42:07;;;;;;;;;82.67;53.67;;;;;3.82;100.00;97697.66;6282888;20;3667018;-46
2021/11/28 05:44:38;;;;;;;;;82.67;62.00;;;;;3.85;100.00;97696.59;6282662;20;3645055;-45
2021/11/28 05:47:08;;;;;;;;;85.33;54.67;;;;;3.78;100.00;97690.81;6315184;20;3660693;-44
2021/11/28 05:49:38;;;;;;;;;74.33;53.00;;;;;3.99;100.00;97691.19;6282921;20;3650245;-45
2021/11/28 05:52:07;;;;;;;;;72.67;55.00;;;;;4.25;100.00;97702.72;6317517;20;3636704;-44
2021/11/28 05:54:37;;;;;;;;;92.00;66.67;;;;;4.18;100.00;97696.13;6315123;20;3670130;-46
2021/11/28 05:57:07;;;;;;;;;87.00;63.00;;;;;4.17;100.00;97700.59;6285245;20;3634621;-45
2021/11/28 05:59:37;;;;;;;;;130.25;97.25;;;;;4.30;100.00;97711.25;6313009;20;3702443;-44
2021/11/28 06:02:07;;;;;;;;;84.67;66.00;;;;;4.25;100.00;97716.00;6279907;20;3633597;-44
2021/11/28 06:04:37;;;;;;;;;80.00;53.00;;;;;4.18;100.00;97715.56;6316139;20;3652344;-44
2021/11/28 06:07:06;;;;;;;;;79.67;56.33;;;;;4.03;100.00;97716.63;6286039;20;3650276;-45
2021/11/28 06:09:36;;;;;;;;;98.00;66.67;;;;;4.02;100.00;97733.47;6314619;20;3667005;-44
2021/11/28 06:12:07;;;;;;;;;84.00;60.67;;;;;4.03;100.00;97735.19;6281629;20;3647165;-45
2021/11/28 06:14:37;;;;;;;;;80.00;59.00;;;;;4.10;100.00;97730.31;6315231;20;3644142;-44
2021/11/28 06:17:06;;;;;;;;;85.00;56.00;;;;;3.98;100.00;97726.69;6316618;20;2787779;-44
2021/11/28 06:19:36;;;;;;;;;87.00;59.33;;;;;3.96;100.00;97724.13;6282090;20;3634741;-46
2021/11/28 06:22:08;;;;;;;;;95.33;64.00;;;;;3.90;100.00;97724.53;6313303;20;3664909;-44
2021/11/28 06:24:42;;;;;;;;;84.33;58.33;;;;;4.04;100.00;97720.97;6280477;20;3648356;-46
2021/11/28 06:27:12;;;;;;;;;82.33;58.00;;;;;4.02;100.00;97727.31;6281834;20;3664808;-44
2021/11/28 06:29:41;;;;;;;;;86.00;60.67;;;;;4.05;100.00;97730.63;6281032;20;3654551;-44
2021/11/28 06:32:11;;;;;;;;;82.33;57.67;;;;;4.01;100.00;97745.06;6315526;20;3643031;-44
2021/11/28 06:34:41;;;;;;;;;88.67;56.00;;;;;3.96;100.00;97741.88;6281305;20;3666923;-46
2021/11/28 06:37:11;;;;;;;;;81.67;56.00;;;;;4.04;100.00;97739.53;6280657;20;3661686;-45
2021/11/28 06:40:03;;;;;;;;;82.00;56.67;;;;;4.06;100.00;97750.06;6278792;20;3661660;-44
2021/11/28 06:42:33;;;;;;;;;80.67;58.67;;;;;4.08;100.00;97737.53;6280595;20;3644013;-45
2021/11/28 06:45:04;;;;;;;;;90.00;60.00;;;;;4.10;100.00;97741.78;6315620;20;2758690;-44
2021/11/28 06:47:47;;;;;;;;;74.67;52.33;;;;;4.04;100.00;97741.34;6284858;20;3645023;-45
2021/11/28 06:50:17;;;;;;;;;82.00;56.33;;;;;4.07;100.00;97734.03;6313522;20;3651406;-44
2021/11/28 06:52:47;;;;;;;;;82.67;55.00;;;;;4.27;100.00;97742.47;6280358;20;3672255;-45
2021/11/28 06:55:17;;;;;;;;;71.33;51.00;;;;;4.18;100.00;97742.13;6314884;20;3646139;-45
2021/11/28 06:57:47;;;;;;;;;83.00;57.00;;;;;4.36;100.00;97755.13;6281829;20;3653401;-44
2021/11/28 07:00:18;;;;;;;;;77.00;54.00;;;;;4.20;100.00;97757.97;6278640;20;3640959;-46
2021/11/28 07:02:49;;;;;;;;;79.67;59.00;;;;;4.33;100.00;97756.19;6313933;20;3647132;-44
2021/11/28 07:05:19;;;;;;;;;74.67;53.33;;;;;4.39;100.00;97750.44;6315402;20;3658691;-46
2021/11/28 07:07:48;;;;;;;;;77.33;56.67;;;;;4.40;100.00;97743.34;6314452;20;3651240;-44
2021/11/28 07:10:18;;;;;;;;;83.00;57.00;;;;;4.46;100.00;97739.44;6313943;20;3653437;-44
2021/11/28 07:12:48;;;;;;;;;79.33;55.33;;;;;4.35;100.00;97735.69;6280651;20;3646071;-46
2021/11/28 07:15:17;;;;;;;;;77.00;56.00;;;;;4.47;100.00;97722.50;6312240;20;3646089;-45
2021/11/28 07:17:47;;;;;;;;;77.33;54.67;;;;;4.51;100.00;97743.47;6312886;20;3656965;-46
2021/11/28 07:20:16;;;;;;;;;64.00;44.67;;;;;4.55;100.00;97736.97;6281590;20;3624329;-46
2021/11/28 07:22:46;;;;;;;;;73.33;53.33;;;;;4.56;100.00;97736.03;6312314;20;3652333;-44
2021/11/28 07:25:16;;;;;;;;;76.33;56.67;;;;;4.54;100.00;97732.63;6310717;20;3632647;-44
2021/11/28 07:27:46;;;;;;;;;78.67;55.00;;;;;4.71;100.00;97735.91;6313167;20;3653390;-44
2021/11/28 07:30:16;;;;;;;;;75.67;54.00;;;;;4.71;100.00;97735.91;6278658;20;3646095;-44
2021/11/28 07:32:45;;;;;;;;;76.67;55.33;;;;;4.81;100.00;97735.16;6312533;20;3637808;-43
2021/11/28 07:35:16;;;;;;;;;81.75;54.00;;;;;4.71;100.00;97725.28;6314403;20;4409548;-45
2021/11/28 07:37:46;;;;;;;;;67.33;53.00;;;;;4.82;100.00;97726.25;6312466;20;3637710;-45
2021/11/28 07:40:16;;;;;;;;;78.00;55.67;;;;;4.77;100.00;97727.53;6313336;20;3645045;-46
2021/11/28 07:42:46;;;;;;;;;76.33;54.33;;;;;4.72;100.00;97724.34;6312120;20;3641929;-45
2021/11/28 07:45:15;;;;;;;;;80.67;58.00;;;;;4.78;100.00;97730.06;6312764;20;3652126;-45
2021/11/28 07:47:45;;;;;;;;;74.00;52.00;;;;;4.83;100.00;97727.94;6279084;20;3642918;-45
2021/11/28 07:50:18;;;;;;;;;78.00;54.67;;;;;4.88;100.00;97718.81;6312272;20;3654553;-47
2021/11/28 07:52:48;;;;;;;;;76.67;54.67;;;;;4.96;100.00;97714.66;6277514;20;3644134;-45
2021/11/28 07:55:18;;;;;;;;;80.00;57.33;;;;;5.01;100.00;97717.84;6311924;20;3654383;-48
2021/11/28 07:57:47;;;;;;;;;76.67;54.67;;;;;5.09;100.00;97719.09;6279473;20;3658551;-46
2021/11/28 08:00:17;;;;;;;;;72.33;53.67;;;;;4.97;100.00;97716.34;6281562;20;3655574;-45
2021/11/28 08:02:48;;;;;;;;;70.33;48.00;;;;;5.13;100.00;97715.25;6279298;20;3630474;-46
2021/11/28 08:05:18;;;;;;;;;70.33;52.00;;;;;5.19;100.00;97710.38;6312663;20;3643100;-44
2021/11/28 08:07:48;;;;;;;;;67.33;48.33;;;;;5.32;100.00;97709.47;6313031;20;3622185;-49
2021/11/28 08:10:18;;;;;;;;;65.00;46.00;;;;;5.35;100.00;97710.09;6313895;20;3631561;-45
2021/11/28 08:12:47;;;;;;;;;61.33;50.67;;;;;5.40;100.00;97718.63;6312588;20;2859727;-46
2021/11/28 08:15:19;;;;;;;;;70.00;49.67;;;;;5.44;100.00;97700.59;6311582;20;3642059;-44
2021/11/28 08:17:49;;;;;;;;;69.67;51.67;;;;;5.48;100.00;97689.63;6312243;20;3647623;-47
2021/11/28 08:20:22;;;;;;;;;69.33;50.00;;;;;5.60;100.00;97682.53;6314623;20;3621153;-45
2021/11/28 08:22:52;;;;;;;;;76.33;54.67;;;;;5.52;100.00;97668.94;6309417;20;3642927;-44
2021/11/28 08:25:21;;;;;;;;;53.50;44.50;;;;;5.90;100.00;97679.44;6281491;20;2851295;-44
2021/11/28 08:27:50;;;;;;;;;63.67;47.00;;;;;5.86;100.00;97677.94;6282176;20;3621189;-45
2021/11/28 08:30:20;;;;;;;;;68.67;51.67;;;;;5.72;100.00;97667.50;6311636;20;3642091;-45
2021/11/28 08:32:50;;;;;;;;;65.67;47.00;;;;;5.75;100.00;97664.59;6311801;20;3646096;-44
2021/11/28 08:35:20;;;;;;;;;57.67;45.00;;;;;6.04;100.00;97675.75;6313509;20;2855477;-45
2021/11/28 08:37:49;;;;;;;;;67.67;49.33;;;;;5.93;100.00;97678.34;6312798;20;3629493;-48
2021/11/28 08:40:20;;;;;;;;;69.67;48.33;;;;;5.92;100.00;97664.19;6312501;20;3650315;-48
2021/11/28 08:42:49;;;;;;;;;52.50;40.50;;;;;5.85;100.00;97654.97;6310339;20;2867982;-47
2021/11/28 08:45:19;;;;;;;;;61.67;46.67;;;;;5.92;100.00;97656.19;6281390;20;3610062;-46
2021/11/28 08:47:49;;;;;;;;;53.67;42.67;;;;;6.00;100.00;97654.78;6312222;20;2851305;-46
2021/11/28 08:50:19;;;;;;;;;52.33;40.00;;;;;6.13;100.00;97651.09;6313056;20;2873265;-45
2021/11/28 08:52:47;;;;;;;;;39.00;36.00;;;;;6.06;100.00;97668.50;6314791;20;3596100;-45
2021/11/28 08:55:20;;;;;;;;;47.33;37.00;;;;;6.22;100.00;97665.53;6279849;20;2858652;-44
2021/11/28 08:57:49;;;;;;;;;54.33;41.00;;;;;6.30;100.00;97668.44;6315583;20;3607508;-45
2021/11/28 09:00:19;;;;;;;;;39.33;36.00;;;;;6.46;100.00;97675.28;6278494;20;2863931;-44
2021/11/28 09:02:49;;;;;;;;;44.33;37.67;;;;;6.52;100.00;97669.44;6312721;20;3617010;-45
2021/11/28 09:05:20;;;;;;;;;45.67;36.33;;;;;6.55;100.00;97679.88;6313809;20;3630605;-49
2021/11/28 09:07:51;;;;;;;;;49.67;38.00;;;;;6.37;100.00;97667.03;6277965;20;2872121;-46
2021/11/28 09:10:21;;;;;;;;;45.67;35.33;;;;;6.44;100.00;97663.88;6311823;20;2866123;-45
2021/11/28 09:12:51;;;;;;;;;93.00;75.33;;;;;6.80;100.00;97669.00;6309137;20;3675213;-45
2021/11/28 09:15:21;;;;;;;;;54.67;40.00;;;;;6.91;100.00;97661.97;6276589;20;3621046;-47
2021/11/28 09:17:56;;;;;;;;;46.33;38.33;;;;;6.92;100.00;97661.00;6313279;20;2860705;-45
2021/11/28 09:20:25;;;;;;;;;61.00;47.00;;;;;6.94;100.00;97659.91;6312175;20;2869094;-45
2021/11/28 09:25:26;;;;;;;;;47.00;39.00;;;;;7.06;100.00;97658.09;6310930;20;2862894;-45
2021/11/28 09:28:00;;;;;;;;;49.50;39.00;;;;;7.08;100.00;97652.59;6278156;20;2837746;-46
2021/11/28 09:30:30;;;;;;;;;56.33;40.00;;;;;7.20;100.00;97656.97;6280819;20;2867071;-44
2021/11/28 09:33:03;;;;;;;;;41.00;37.00;;;;;7.31;100.00;97656.09;6311815;20;3578371;-45
2021/11/28 09:35:34;;;;;;;;;37.00;34.33;;;;;7.21;100.00;97645.31;6277470;20;3613784;-44
2021/11/28 09:38:03;;;;;;;;;31.33;29.33;;;;;7.26;100.00;97643.97;6312179;20;3586766;-45
2021/11/28 09:40:33;;;;;;;;;29.67;26.33;;;;;7.32;100.00;97639.09;6310425;20;2844007;-47
2021/11/28 09:43:05;;;;;;;;;43.00;35.33;;;;;7.16;100.00;97627.03;6314773;20;3609615;-47
2021/11/28 09:45:35;;;;;;;;;40.33;30.00;;;;;7.13;100.00;97621.91;6278079;20;3611739;-45
2021/11/28 09:48:05;;;;;;;;;35.00;31.00;;;;;6.90;100.00;97622.91;6314361;20;3537734;-45
2021/11/28 09:50:35;;;;;;;;;43.00;34.33;;;;;7.02;100.00;97613.94;6309479;20;3612720;-46
2021/11/28 09:53:06;;;;;;;;;44.00;37.67;;;;;7.36;100.00;97627.22;6313645;20;3577304;-45
2021/11/28 09:55:36;;;;;;;;;41.33;31.33;;;;;7.62;100.00;97625.09;6277399;20;3618236;-46
2021/11/28 09:58:05;;;;;;;;;38.00;31.50;;;;;7.55;100.00;97618.53;6310954;20;2862894;-45
2021/11/28 10:00:36;;;;;;;;;29.33;28.00;;;;;7.55;100.00;97611.38;6275680;20;2845044;-45
2021/11/28 10:03:05;;;;;;;;;45.67;35.33;;;;;7.69;100.00;97604.91;6312161;20;3629426;-46
2021/11/28 10:05:34;;;;;;;;;35.67;34.00;;;;;7.67;100.00;97606.84;6281879;20;3601250;-46
2021/11/28 10:08:03;;;;;;;;;31.00;29.00;;;;;7.51;100.00;97593.94;6280114;20;2852360;-44
2021/11/28 10:10:35;;;;;;;;;33.33;25.00;;;;;7.72;100.00;97593.13;6275860;20;2860700;-46
2021/11/28 10:13:04;;;;;;;;;52.00;40.67;;;;;7.74;100.00;97581.34;6317470;20;3606468;-45
2021/11/28 10:15:33;;;;;;;;;35.00;29.00;;;;;7.61;100.00;97575.28;6282634;20;2845034;-47
2021/11/28 10:18:02;;;;;;;;;42.00;33.33;;;;;7.56;100.00;97570.34;6284369;20;3622084;-45
2021/11/28 10:20:36;;;;;;;;;28.00;27.67;;;;;7.81;100.00;97568.28;6311850;20;2845034;-49
2021/11/28 10:23:05;;;;;;;;;37.67;31.00;;;;;8.42;100.00;97573.75;6315394;20;3616887;-52
2021/11/28 10:25:35;;;;;;;;;39.67;35.00;;;;;8.74;100.00;97565.63;6284610;20;2864837;-50
2021/11/28 10:28:09;;;;;;;;;40.00;31.67;;;;;8.21;100.00;97560.38;6315807;20;3626263;-45
2021/11/28 10:30:43;;;;;;;;;39.33;34.33;;;;;8.01;100.00;97559.44;6285404;20;3623277;-47
2021/11/28 10:33:21;;;;;;;;;44.00;34.33;;;;;8.12;100.00;97554.00;6288107;20;3599201;-47
2021/11/28 10:36:10;;;;;;;;;44.00;33.00;;;;;7.80;100.00;97547.91;6285057;20;3627338;-47
2021/11/28 10:38:44;;;;;;;;;43.50;38.00;;;;;7.91;100.00;97537.16;6315570;20;2844027;-47
2021/11/28 10:41:24;;;;;;;;;44.67;38.00;;;;;7.66;100.00;97533.03;6283315;20;2853531;-46
2021/11/28 10:43:55;;;;;;;;;49.50;38.00;;;;;7.63;100.00;97523.44;6315249;20;3524172;-47
2021/11/28 10:46:33;;;;;;;;;51.67;39.00;;;;;7.56;100.00;97519.63;6319077;20;3596450;-47
2021/11/28 10:49:12;;;;;;;;;56.33;42.33;;;;;7.79;100.00;97522.16;6279505;20;2862768;-47
2021/11/28 10:51:57;;;;;;;;;52.00;42.00;;;;;7.73;100.00;97528.03;6313402;20;2847272;-50
2021/11/28 10:54:36;;;;;;;;;46.00;37.00;;;;;7.77;100.00;97518.78;6281688;20;2885779;-46
2021/11/28 10:57:10;;;;;;;;;54.33;43.00;;;;;7.62;100.00;97511.09;6314497;20;2863896;-45
2021/11/28 10:59:45;;;;;;;;;48.33;40.33;;;;;7.63;100.00;97511.94;6313868;20;3602362;-46
2021/11/28 11:02:34;;;;;;;;;56.67;42.33;;;;;7.75;100.00;97496.69;6315108;20;2862807;-48
2021/11/28 11:05:10;;;;;;;;;58.67;45.00;;;;;7.99;100.00;97483.91;6314156;20;3610672;-45
2021/11/28 11:07:55;;;;;;;;;56.67;42.67;;;;;8.18;100.00;97471.59;6315911;20;3623169;-48
2021/11/28 11:10:33;;;;;;;;;50.00;38.00;;;;;8.43;100.00;97468.50;6316499;20;3600203;-46
2021/11/28 11:13:05;;;;;;;;;78.00;59.33;;;;;8.55;100.00;97477.25;6285189;20;3618949;-48
2021/11/28 11:15:48;;;;;;;;;69.75;52.50;;;;;8.57;100.00;97477.97;6314372;20;3634653;-45
2021/11/28 11:18:21;;;;;;;;;48.00;38.00;;;;;8.86;100.00;97483.41;6310605;20;2857671;-46
2021/11/28 11:21:04;;;;;;;;;48.00;37.00;;;;;8.70;100.00;97491.09;6318547;20;3594051;-45
2021/11/28 11:23:45;;;;;;;;;53.00;39.00;;;;;8.69;100.00;97489.41;6279821;20;3601317;-45
2021/11/28 11:26:26;;;;;;;;;47.67;39.67;;;;;8.50;100.00;97484.84;6317767;20;3599155;-45